Latest Coastal Weather Observations for Arlington Reef

IDQ60701

Issued at 9:11 am EST Monday 20 February 2017 (issued every 10 minutes, with the page automatically refreshed every 10 minutes)

About coastal observations | Map of coastal stations | Coastal observations for QLD | Marine services | Other Formats
Station Details ID: 200879 Name: ARLINGTON REEF Lat: -16.72 Lon: 146.11 Height: 0.0 m
Data from the previous 72 hours. | See also: Recent months at Arlington Reef
Date/Time
EST
Temp
°C
Wind Pressure Rain since
9am
mm
Weather Cloud Vis
km
Sea
Height
m
Swell
Dir  Spd
kts
Gust
kts
hPa Trend Height
m
Period
s
Dir
20/09:00am - SSW 1 2 1010.2 - - - - - - - - -
20/08:30am - CALM 0 3 1009.9 - - - - - - - - -
20/08:00am - SSW 1 2 1009.7 - - - - - - - - -
20/07:30am - CALM 0 0 1009.2 - - - - - - - - -
20/07:00am - WSW 2 3 1008.8 - - - - - - - - -
20/06:30am - WSW 5 6 1008.3 - - - - - - - - -
20/06:00am - WSW 6 7 1008.3 - - - - - - - - -
20/05:30am - WSW 9 11 1008.0 - - - - - - - - -
20/05:00am - W 6 9 1007.6 - - - - - - - - -
20/04:30am - NNW 3 6 1007.2 - - - - - - - - -
20/04:00am - NNW 4 5 1007.2 - - - - - - - - -
20/03:30am - NNW 5 6 1007.2 - - - - - - - - -
20/03:00am - NW 6 7 1007.4 - - - - - - - - -
20/02:30am - WNW 7 9 1007.7 - - - - - - - - -
20/02:00am - WNW 6 8 1007.9 - - - - - - - - -
20/01:30am - WNW 6 8 1008.2 - - - - - - - - -
20/01:00am - NW 6 7 1008.5 - - - - - - - - -
20/12:30am - NW 5 6 1008.7 - - - - - - - - -
20/12:00am - NW 5 6 1008.8 - - - - - - - - -
 
Date/Time
EST
Temp
°C
Wind Pressure Rain since
9am
mm
Weather Cloud Vis
km
Sea
Height
m
Swell
Dir  Spd
kts
Gust
kts
hPa Trend Height
m
Period
s
Dir
19/11:30pm - NW 4 5 1009.4 - - - - - - - - -
19/11:00pm - NW 4 6 1009.9 - - - - - - - - -
19/10:30pm - NW 4 5 1010.1 - - - - - - - - -
19/10:00pm - N 2 4 1009.9 - - - - - - - - -
19/09:30pm - NNE 3 5 1009.8 - - - - - - - - -
19/09:00pm - N 3 6 1009.6 - - - - - - - - -
19/08:30pm - NNE 3 4 1009.1 - - - - - - - - -
19/08:00pm - NNE 3 5 1008.7 - - - - - - - - -
19/07:30pm - N 3 5 1008.3 - - - - - - - - -
19/07:00pm - N 4 5 1008.1 - - - - - - - - -
19/06:30pm - N 3 4 1007.5 - - - - - - - - -
19/06:00pm - N 3 5 1007.0 - - - - - - - - -
19/05:30pm - N 3 5 1006.8 - - - - - - - - -
19/05:00pm - N 4 6 1006.5 - - - - - - - - -
19/04:30pm - N 5 6 1006.5 - - - - - - - - -
19/04:00pm - N 4 5 1006.5 - - - - - - - - -
19/03:30pm - N 4 6 1006.8 - - - - - - - - -
19/03:00pm - N 6 8 1006.9 - - - - - - - - -
19/02:30pm - N 7 9 1007.2 - - - - - - - - -
19/02:00pm - N 8 10 1007.2 - - - - - - - - -
19/01:30pm - N 7 8 1007.7 - - - - - - - - -
19/01:00pm - N 7 9 1008.1 - - - - - - - - -
19/12:30pm - NNW 9 11 1008.6 - - - - - - - - -
19/12:00pm - NNW 12 13 1008.7 - - - - - - - - -
19/11:30am - N 8 9 1008.9 - - - - - - - - -
19/11:00am - NNW 8 9 1009.2 - - - - - - - - -
19/10:30am - NW 6 8 1009.7 - - - - - - - - -
19/10:00am - NW 5 7 1010.1 - - - - - - - - -
19/09:30am - WNW 8 10 1010.5 - - - - - - - - -
19/09:00am - WNW 7 9 1010.4 - - - - - - - - -
19/08:30am - NW 7 9 1010.4 - - - - - - - - -
19/08:00am - NW 7 9 1010.1 - - - - - - - - -
19/07:30am - NW 7 8 1009.9 - - - - - - - - -
19/07:00am - NW 6 7 1009.5 - - - - - - - - -
19/06:30am - NNW 6 8 1009.2 - - - - - - - - -
19/06:00am - N 6 8 1008.7 - - - - - - - - -
19/05:30am - NNW 6 7 1008.4 - - - - - - - - -
19/05:00am - N 5 6 1008.1 - - - - - - - - -
19/04:30am - N 6 7 1008.1 - - - - - - - - -
19/04:00am - NNE 3 5 1008.0 - - - - - - - - -
19/03:30am - N 4 5 1007.8 - - - - - - - - -
19/03:00am - N 4 5 1007.7 - - - - - - - - -
19/02:30am - N 3 4 1007.9 - - - - - - - - -
19/02:00am - N 2 3 1008.5 - - - - - - - - -
19/01:30am - N 1 2 1008.7 - - - - - - - - -
19/01:00am - CALM 0 0 1009.1 - - - - - - - - -
19/12:30am - CALM 0 0 1009.3 - - - - - - - - -
19/12:00am - NW 3 4 1009.6 - - - - - - - - -
 
Date/Time
EST
Temp
°C
Wind Pressure Rain since
9am
mm
Weather Cloud Vis
km
Sea
Height
m
Swell
Dir  Spd
kts
Gust
kts
hPa Trend Height
m
Period
s
Dir
18/11:30pm - NNW 3 5 1010.2 - - - - - - - - -
18/11:00pm - N 5 6 1010.3 - - - - - - - - -
18/10:30pm - N 5 7 1010.3 - - - - - - - - -
18/10:00pm - N 4 5 1010.3 - - - - - - - - -
18/09:30pm - NNW 2 3 1010.1 - - - - - - - - -
18/09:00pm - CALM 0 1 1009.9 - - - - - - - - -
18/08:30pm - N 2 2 1009.9 - - - - - - - - -
18/08:00pm - N 2 3 1009.9 - - - - - - - - -
18/07:30pm - N 4 5 1009.9 - - - - - - - - -
18/07:00pm - N 5 6 1009.8 - - - - - - - - -
18/06:30pm - N 5 7 1009.7 - - - - - - - - -
18/06:00pm - NE 4 6 1009.4 - - - - - - - - -
18/05:30pm - NE 5 6 1009.3 - - - - - - - - -
18/05:00pm - ENE 5 6 1008.9 - - - - - - - - -
18/04:30pm - E 5 6 1008.4 - - - - - - - - -
18/04:00pm - E 5 7 1008.7 - - - - - - - - -
18/03:30pm - E 6 7 1008.5 - - - - - - - - -
18/03:00pm - E 6 8 1008.8 - - - - - - - - -
18/02:30pm - E 5 7 1009.3 - - - - - - - - -
18/02:00pm - ENE 5 8 1009.7 - - - - - - - - -
18/01:30pm - ENE 4 5 1010.2 - - - - - - - - -
18/01:00pm - ENE 4 7 1010.6 - - - - - - - - -
18/12:30pm - E 5 6 1011.0 - - - - - - - - -
18/12:00pm - E 4 6 1011.4 - - - - - - - - -
18/11:30am - E 5 7 1011.6 - - - - - - - - -
18/11:00am - E 5 7 1011.8 - - - - - - - - -
18/10:30am - ENE 3 4 1011.9 - - - - - - - - -
18/10:00am - NE 3 4 1012.2 - - - - - - - - -
18/09:30am - E 7 9 1012.4 - - - - - - - - -
18/09:00am - SE 1 2 1012.4 - - - - - - - - -
18/08:30am - SSE 4 5 1012.4 - - - - - - - - -
18/08:00am - SSE 4 8 1012.1 - - - - - - - - -
18/07:30am - SSE 4 6 1011.9 - - - - - - - - -
18/07:00am - SSE 5 6 1011.6 - - - - - - - - -
18/06:30am - SSE 5 7 1011.4 - - - - - - - - -
18/06:00am - S 3 4 1011.3 - - - - - - - - -
18/05:30am - SSW 2 3 1010.8 - - - - - - - - -
18/05:00am - N 2 4 1010.7 - - - - - - - - -
18/04:30am - N 4 5 1010.6 - - - - - - - - -
18/04:00am - N 4 5 1010.6 - - - - - - - - -
18/03:30am - N 4 6 1010.5 - - - - - - - - -
18/03:00am - NNE 10 13 1010.3 - - - - - - - - -
18/02:30am - NNE 15 19 1010.4 - - - - - - - - -
18/02:27am - NNE 15 19 1010.4 - - - - - - - - -
18/02:00am - ENE 7 9 1010.7 - - - - - - - - -
18/01:30am - S 10 12 1010.7 - - - - - - - - -
18/01:00am - S 9 12 1011.1 - - - - - - - - -
18/12:30am - SSE 8 10 1011.4 - - - - - - - - -
18/12:00am - SSE 8 10 1011.7 - - - - - - - - -
 
Date/Time
EST
Temp
°C
Wind Pressure Rain since
9am
mm
Weather Cloud Vis
km
Sea
Height
m
Swell
Dir  Spd
kts
Gust
kts
hPa Trend Height
m
Period
s
Dir
17/11:30pm - SSE 8 10 1012.2 - - - - - - - - -
17/11:00pm - SSE 8 9 1012.4 - - - - - - - - -
17/10:30pm - SSE 6 7 1012.6 - - - - - - - - -
17/10:00pm - SSE 7 8 1012.4 - - - - - - - - -
17/09:30pm - SE 8 9 1012.1 - - - - - - - - -
17/09:00pm - SSE 8 10 1012.1 - - - - - - - - -
17/08:30pm - SSE 6 8 1012.3 - - - - - - - - -
17/08:00pm - SSE 7 9 1012.1 - - - - - - - - -
17/07:30pm - SSE 5 7 1011.8 - - - - - - - - -
17/07:00pm - SSE 6 8 1011.8 - - - - - - - - -
17/06:30pm - ESE 3 4 1011.7 - - - - - - - - -
17/06:00pm - E 5 6 1011.6 - - - - - - - - -
17/05:30pm - NE 8 10 1011.4 - - - - - - - - -
17/05:00pm - ENE 7 15 1011.6 - - - - - - - - -
17/04:30pm - SSE 13 16 1011.1 - - - - - - - - -
17/04:00pm - SSE 18 20 1011.0 - - - - - - - - -
17/03:30pm - SE 16 19 1010.8 - - - - - - - - -
17/03:00pm - SE 16 18 1010.7 - - - - - - - - -
17/02:30pm - SSE 16 18 1010.9 - - - - - - - - -
17/02:00pm - SSE 19 22 1011.0 - - - - - - - - -
17/01:55pm - SSE 17 22 1011.0 - - - - - - - - -
17/01:30pm - SSE 8 12 1011.5 - - - - - - - - -
17/01:00pm - SE 4 6 1011.9 - - - - - - - - -
17/12:30pm - SE 8 12 1012.4 - - - - - - - - -
17/12:00pm - S 13 15 1012.5 - - - - - - - - -
17/11:30am - SSW 11 12 1012.4 - - - - - - - - -
17/11:00am - SSW 10 11 1012.5 - - - - - - - - -
17/10:30am - SSW 6 8 1012.7 - - - - - - - - -
17/10:00am - SSE 5 7 1012.9 - - - - - - - - -
17/09:30am - SE 4 5 1012.8 - - - - - - - - -

Other Formats:

Comma delimited format used in spreadsheet applications
http://www.bom.gov.au/fwo/IDQ60701/IDQ60701.94284.axf

JavaScript Object Notation format (JSON) in row-major order
http://www.bom.gov.au/fwo/IDQ60701/IDQ60701.94284.json